sensor_id;sensor_type;location;lat;lon;timestamp;P1;durP1;ratioP1;P2;durP2;ratioP2
75371;SDS011;63956;52.006;5.878;2023-04-15T00:03:54;3.90;;;2.35;;
75371;SDS011;63956;52.006;5.878;2023-04-15T00:06:24;5.93;;;2.83;;
75371;SDS011;63956;52.006;5.878;2023-04-15T00:11:22;5.05;;;2.72;;
75371;SDS011;63956;52.006;5.878;2023-04-15T00:13:54;5.18;;;3.10;;
75371;SDS011;63956;52.006;5.878;2023-04-15T00:16:23;4.47;;;1.60;;
75371;SDS011;63956;52.006;5.878;2023-04-15T00:18:53;4.35;;;2.20;;
75371;SDS011;63956;52.006;5.878;2023-04-15T00:21:22;3.60;;;2.28;;
75371;SDS011;63956;52.006;5.878;2023-04-15T00:23:53;7.10;;;4.25;;
75371;SDS011;63956;52.006;5.878;2023-04-15T00:26:22;7.43;;;2.65;;
75371;SDS011;63956;52.006;5.878;2023-04-15T00:28:55;3.45;;;1.08;;
75371;SDS011;63956;52.006;5.878;2023-04-15T00:31:24;3.88;;;2.20;;
75371;SDS011;63956;52.006;5.878;2023-04-15T00:33:53;4.53;;;1.52;;
75371;SDS011;63956;52.006;5.878;2023-04-15T00:36:23;4.90;;;2.90;;
75371;SDS011;63956;52.006;5.878;2023-04-15T00:38:52;4.53;;;1.35;;
75371;SDS011;63956;52.006;5.878;2023-04-15T00:43:50;5.65;;;3.08;;
75371;SDS011;63956;52.006;5.878;2023-04-15T00:48:51;4.38;;;3.00;;
75371;SDS011;63956;52.006;5.878;2023-04-15T00:51:21;5.35;;;3.05;;
75371;SDS011;63956;52.006;5.878;2023-04-15T00:53:50;6.03;;;4.38;;
75371;SDS011;63956;52.006;5.878;2023-04-15T00:56:19;5.78;;;2.58;;
75371;SDS011;63956;52.006;5.878;2023-04-15T00:58:50;3.55;;;2.00;;
75371;SDS011;63956;52.006;5.878;2023-04-15T01:01:22;4.28;;;2.75;;
75371;SDS011;63956;52.006;5.878;2023-04-15T01:03:54;4.60;;;3.03;;
75371;SDS011;63956;52.006;5.878;2023-04-15T01:06:26;4.35;;;2.63;;
75371;SDS011;63956;52.006;5.878;2023-04-15T01:11:24;3.65;;;2.45;;
75371;SDS011;63956;52.006;5.878;2023-04-15T01:13:55;6.75;;;3.03;;
75371;SDS011;63956;52.006;5.878;2023-04-15T01:16:29;5.50;;;2.45;;
75371;SDS011;63956;52.006;5.878;2023-04-15T01:18:58;4.13;;;2.22;;
75371;SDS011;63956;52.006;5.878;2023-04-15T01:21:28;4.80;;;1.00;;
75371;SDS011;63956;52.006;5.878;2023-04-15T01:23:58;6.00;;;2.90;;
75371;SDS011;63956;52.006;5.878;2023-04-15T01:26:32;3.13;;;1.17;;
75371;SDS011;63956;52.006;5.878;2023-04-15T01:29:01;4.18;;;2.58;;
75371;SDS011;63956;52.006;5.878;2023-04-15T01:31:31;4.75;;;2.75;;
75371;SDS011;63956;52.006;5.878;2023-04-15T01:34:00;2.88;;;0.90;;
75371;SDS011;63956;52.006;5.878;2023-04-15T01:38:58;3.55;;;2.53;;
75371;SDS011;63956;52.006;5.878;2023-04-15T01:41:28;5.10;;;2.75;;
75371;SDS011;63956;52.006;5.878;2023-04-15T01:46:28;4.28;;;2.45;;
75371;SDS011;63956;52.006;5.878;2023-04-15T01:48:59;3.67;;;2.10;;
75371;SDS011;63956;52.006;5.878;2023-04-15T01:51:28;3.75;;;2.90;;
75371;SDS011;63956;52.006;5.878;2023-04-15T01:56:26;4.20;;;2.25;;
75371;SDS011;63956;52.006;5.878;2023-04-15T01:58:55;6.70;;;3.08;;
75371;SDS011;63956;52.006;5.878;2023-04-15T02:01:31;5.35;;;4.32;;
75371;SDS011;63956;52.006;5.878;2023-04-15T02:04:01;4.93;;;3.08;;
75371;SDS011;63956;52.006;5.878;2023-04-15T02:06:30;3.80;;;2.33;;
75371;SDS011;63956;52.006;5.878;2023-04-15T02:09:01;3.72;;;2.22;;
75371;SDS011;63956;52.006;5.878;2023-04-15T02:11:30;5.38;;;3.10;;
75371;SDS011;63956;52.006;5.878;2023-04-15T02:13:59;5.25;;;4.53;;
75371;SDS011;63956;52.006;5.878;2023-04-15T02:16:32;5.45;;;2.63;;
75371;SDS011;63956;52.006;5.878;2023-04-15T02:19:01;5.55;;;3.08;;
75371;SDS011;63956;52.006;5.878;2023-04-15T02:21:30;4.50;;;2.97;;
75371;SDS011;63956;52.006;5.878;2023-04-15T02:24:00;6.63;;;3.03;;
75371;SDS011;63956;52.006;5.878;2023-04-15T02:26:29;4.25;;;2.58;;
75371;SDS011;63956;52.006;5.878;2023-04-15T02:28:59;4.88;;;2.25;;
75371;SDS011;63956;52.006;5.878;2023-04-15T02:34:04;4.03;;;1.80;;
75371;SDS011;63956;52.006;5.878;2023-04-15T02:36:33;4.10;;;2.40;;
75371;SDS011;63956;52.006;5.878;2023-04-15T02:39:04;6.45;;;4.18;;
75371;SDS011;63956;52.006;5.878;2023-04-15T02:41:33;4.03;;;3.05;;
75371;SDS011;63956;52.006;5.878;2023-04-15T02:44:03;5.03;;;4.07;;
75371;SDS011;63956;52.006;5.878;2023-04-15T02:46:34;5.78;;;3.17;;
75371;SDS011;63956;52.006;5.878;2023-04-15T02:49:06;4.68;;;3.67;;
75371;SDS011;63956;52.006;5.878;2023-04-15T02:51:36;4.85;;;1.42;;
75371;SDS011;63956;52.006;5.878;2023-04-15T02:56:34;5.13;;;3.20;;
75371;SDS011;63956;52.006;5.878;2023-04-15T02:59:03;4.28;;;2.78;;
75371;SDS011;63956;52.006;5.878;2023-04-15T03:04:01;4.22;;;2.50;;
75371;SDS011;63956;52.006;5.878;2023-04-15T03:06:35;6.25;;;4.47;;
75371;SDS011;63956;52.006;5.878;2023-04-15T03:09:07;4.15;;;2.40;;
75371;SDS011;63956;52.006;5.878;2023-04-15T03:11:37;3.85;;;1.27;;
75371;SDS011;63956;52.006;5.878;2023-04-15T03:14:08;3.88;;;2.85;;
75371;SDS011;63956;52.006;5.878;2023-04-15T03:16:41;6.75;;;5.28;;
75371;SDS011;63956;52.006;5.878;2023-04-15T03:19:13;6.78;;;4.57;;
75371;SDS011;63956;52.006;5.878;2023-04-15T03:21:45;7.97;;;3.80;;
75371;SDS011;63956;52.006;5.878;2023-04-15T03:24:14;6.63;;;3.85;;
75371;SDS011;63956;52.006;5.878;2023-04-15T03:26:44;9.00;;;4.03;;
75371;SDS011;63956;52.006;5.878;2023-04-15T03:29:15;6.70;;;5.53;;
75371;SDS011;63956;52.006;5.878;2023-04-15T03:31:45;7.47;;;5.03;;
75371;SDS011;63956;52.006;5.878;2023-04-15T03:34:15;6.07;;;3.90;;
75371;SDS011;63956;52.006;5.878;2023-04-15T03:36:47;6.07;;;2.28;;
75371;SDS011;63956;52.006;5.878;2023-04-15T03:39:16;7.78;;;3.42;;
75371;SDS011;63956;52.006;5.878;2023-04-15T03:41:46;3.83;;;1.25;;
75371;SDS011;63956;52.006;5.878;2023-04-15T03:44:15;6.93;;;4.07;;
75371;SDS011;63956;52.006;5.878;2023-04-15T03:46:44;6.70;;;3.60;;
75371;SDS011;63956;52.006;5.878;2023-04-15T03:49:13;10.05;;;5.93;;
75371;SDS011;63956;52.006;5.878;2023-04-15T03:51:44;5.15;;;2.95;;
75371;SDS011;63956;52.006;5.878;2023-04-15T03:54:15;5.65;;;3.60;;
75371;SDS011;63956;52.006;5.878;2023-04-15T03:56:44;6.72;;;3.80;;
75371;SDS011;63956;52.006;5.878;2023-04-15T03:59:14;6.07;;;4.18;;
75371;SDS011;63956;52.006;5.878;2023-04-15T04:01:43;6.35;;;4.00;;
75371;SDS011;63956;52.006;5.878;2023-04-15T04:04:12;6.07;;;3.80;;
75371;SDS011;63956;52.006;5.878;2023-04-15T04:06:41;6.28;;;4.22;;
75371;SDS011;63956;52.006;5.878;2023-04-15T04:11:41;8.02;;;3.67;;
75371;SDS011;63956;52.006;5.878;2023-04-15T04:14:10;5.65;;;2.97;;
75371;SDS011;63956;52.006;5.878;2023-04-15T04:19:09;6.75;;;4.00;;
75371;SDS011;63956;52.006;5.878;2023-04-15T04:21:39;7.55;;;4.00;;
75371;SDS011;63956;52.006;5.878;2023-04-15T04:26:40;6.75;;;3.60;;
75371;SDS011;63956;52.006;5.878;2023-04-15T04:29:09;6.32;;;4.00;;
75371;SDS011;63956;52.006;5.878;2023-04-15T04:31:38;7.97;;;5.35;;
75371;SDS011;63956;52.006;5.878;2023-04-15T04:36:36;6.93;;;3.25;;
75371;SDS011;63956;52.006;5.878;2023-04-15T04:39:05;10.75;;;3.90;;
75371;SDS011;63956;52.006;5.878;2023-04-15T04:41:34;5.50;;;2.00;;
75371;SDS011;63956;52.006;5.878;2023-04-15T04:44:06;7.15;;;3.42;;
75371;SDS011;63956;52.006;5.878;2023-04-15T04:46:35;6.82;;;3.65;;
75371;SDS011;63956;52.006;5.878;2023-04-15T04:49:04;6.60;;;4.07;;
75371;SDS011;63956;52.006;5.878;2023-04-15T04:51:33;8.10;;;3.75;;
75371;SDS011;63956;52.006;5.878;2023-04-15T04:54:02;6.38;;;4.20;;
75371;SDS011;63956;52.006;5.878;2023-04-15T04:56:32;7.53;;;4.22;;
75371;SDS011;63956;52.006;5.878;2023-04-15T04:59:06;8.27;;;5.07;;
75371;SDS011;63956;52.006;5.878;2023-04-15T05:01:35;7.97;;;5.30;;
75371;SDS011;63956;52.006;5.878;2023-04-15T05:06:33;5.28;;;3.25;;
75371;SDS011;63956;52.006;5.878;2023-04-15T05:09:03;7.35;;;4.70;;
75371;SDS011;63956;52.006;5.878;2023-04-15T05:11:32;7.10;;;4.60;;
75371;SDS011;63956;52.006;5.878;2023-04-15T05:16:33;6.10;;;4.07;;
75371;SDS011;63956;52.006;5.878;2023-04-15T05:19:02;6.68;;;4.57;;
75371;SDS011;63956;52.006;5.878;2023-04-15T05:21:32;5.03;;;2.88;;
75371;SDS011;63956;52.006;5.878;2023-04-15T05:24:01;9.05;;;5.70;;
75371;SDS011;63956;52.006;5.878;2023-04-15T05:26:31;7.22;;;4.32;;
75371;SDS011;63956;52.006;5.878;2023-04-15T05:29:00;5.53;;;3.13;;
75371;SDS011;63956;52.006;5.878;2023-04-15T05:31:29;5.88;;;3.50;;
75371;SDS011;63956;52.006;5.878;2023-04-15T05:34:02;6.90;;;4.10;;
75371;SDS011;63956;52.006;5.878;2023-04-15T05:36:31;8.10;;;5.07;;
75371;SDS011;63956;52.006;5.878;2023-04-15T05:39:01;6.70;;;4.13;;
75371;SDS011;63956;52.006;5.878;2023-04-15T05:41:30;6.25;;;3.38;;
75371;SDS011;63956;52.006;5.878;2023-04-15T05:46:28;7.20;;;4.38;;
75371;SDS011;63956;52.006;5.878;2023-04-15T05:48:59;9.77;;;6.18;;
75371;SDS011;63956;52.006;5.878;2023-04-15T05:51:28;6.10;;;3.63;;
75371;SDS011;63956;52.006;5.878;2023-04-15T05:56:26;5.40;;;3.45;;
75371;SDS011;63956;52.006;5.878;2023-04-15T05:58:56;6.22;;;4.38;;
75371;SDS011;63956;52.006;5.878;2023-04-15T06:01:25;7.78;;;4.15;;
75371;SDS011;63956;52.006;5.878;2023-04-15T06:03:55;5.82;;;1.65;;
75371;SDS011;63956;52.006;5.878;2023-04-15T06:06:27;5.07;;;2.78;;
75371;SDS011;63956;52.006;5.878;2023-04-15T06:08:57;8.40;;;4.88;;
75371;SDS011;63956;52.006;5.878;2023-04-15T06:11:26;6.43;;;3.80;;
75371;SDS011;63956;52.006;5.878;2023-04-15T06:16:24;8.73;;;5.75;;
75371;SDS011;63956;52.006;5.878;2023-04-15T06:21:22;9.07;;;5.03;;
75371;SDS011;63956;52.006;5.878;2023-04-15T06:23:54;8.10;;;5.88;;
75371;SDS011;63956;52.006;5.878;2023-04-15T06:26:24;13.52;;;6.07;;
75371;SDS011;63956;52.006;5.878;2023-04-15T06:28:53;6.43;;;3.17;;
75371;SDS011;63956;52.006;5.878;2023-04-15T06:33:51;6.93;;;4.18;;
75371;SDS011;63956;52.006;5.878;2023-04-15T06:36:20;5.43;;;3.33;;
75371;SDS011;63956;52.006;5.878;2023-04-15T06:38:49;6.00;;;1.83;;
75371;SDS011;63956;52.006;5.878;2023-04-15T06:41:21;6.00;;;2.35;;
75371;SDS011;63956;52.006;5.878;2023-04-15T06:43:50;6.97;;;5.10;;
75371;SDS011;63956;52.006;5.878;2023-04-15T06:48:48;5.80;;;3.20;;
75371;SDS011;63956;52.006;5.878;2023-04-15T06:53:46;6.88;;;3.58;;
75371;SDS011;63956;52.006;5.878;2023-04-15T06:56:15;6.95;;;4.32;;
75371;SDS011;63956;52.006;5.878;2023-04-15T06:58:47;10.75;;;4.28;;
75371;SDS011;63956;52.006;5.878;2023-04-15T07:01:16;6.10;;;3.17;;
75371;SDS011;63956;52.006;5.878;2023-04-15T07:06:14;6.28;;;2.30;;
75371;SDS011;63956;52.006;5.878;2023-04-15T07:11:12;6.57;;;3.35;;
75371;SDS011;63956;52.006;5.878;2023-04-15T07:13:42;6.15;;;3.42;;
75371;SDS011;63956;52.006;5.878;2023-04-15T07:16:14;5.20;;;2.88;;
75371;SDS011;63956;52.006;5.878;2023-04-15T07:18:43;7.85;;;5.05;;
75371;SDS011;63956;52.006;5.878;2023-04-15T07:21:12;7.20;;;4.55;;
75371;SDS011;63956;52.006;5.878;2023-04-15T07:23:41;6.70;;;3.75;;
75371;SDS011;63956;52.006;5.878;2023-04-15T07:26:11;5.70;;;2.95;;
75371;SDS011;63956;52.006;5.878;2023-04-15T07:31:10;7.03;;;3.03;;
75371;SDS011;63956;52.006;5.878;2023-04-15T07:33:42;4.80;;;2.58;;
75371;SDS011;63956;52.006;5.878;2023-04-15T07:38:40;6.47;;;2.05;;
75371;SDS011;63956;52.006;5.878;2023-04-15T07:41:09;11.55;;;4.85;;
75371;SDS011;63956;52.006;5.878;2023-04-15T07:43:38;8.55;;;4.38;;
75371;SDS011;63956;52.006;5.878;2023-04-15T07:46:08;6.95;;;2.85;;
75371;SDS011;63956;52.006;5.878;2023-04-15T07:51:08;4.80;;;2.90;;
75371;SDS011;63956;52.006;5.878;2023-04-15T07:53:38;8.18;;;4.93;;
75371;SDS011;63956;52.006;5.878;2023-04-15T07:56:07;6.32;;;3.53;;
75371;SDS011;63956;52.006;5.878;2023-04-15T07:58:36;7.13;;;4.43;;
75371;SDS011;63956;52.006;5.878;2023-04-15T08:01:06;6.45;;;3.70;;
75371;SDS011;63956;52.006;5.878;2023-04-15T08:03:35;9.02;;;5.22;;
75371;SDS011;63956;52.006;5.878;2023-04-15T08:08:36;7.05;;;3.60;;
75371;SDS011;63956;52.006;5.878;2023-04-15T08:13:33;7.05;;;3.97;;
75371;SDS011;63956;52.006;5.878;2023-04-15T08:18:43;7.85;;;4.57;;
75371;SDS011;63956;52.006;5.878;2023-04-15T08:21:15;6.53;;;3.35;;
75371;SDS011;63956;52.006;5.878;2023-04-15T08:23:44;5.07;;;2.67;;
75371;SDS011;63956;52.006;5.878;2023-04-15T08:26:15;4.90;;;3.08;;
75371;SDS011;63956;52.006;5.878;2023-04-15T08:31:14;5.53;;;2.83;;
75371;SDS011;63956;52.006;5.878;2023-04-15T08:33:44;4.03;;;2.30;;
75371;SDS011;63956;52.006;5.878;2023-04-15T08:36:16;6.30;;;2.83;;
75371;SDS011;63956;52.006;5.878;2023-04-15T08:38:45;4.45;;;2.42;;
75371;SDS011;63956;52.006;5.878;2023-04-15T08:43:50;5.05;;;3.25;;
75371;SDS011;63956;52.006;5.878;2023-04-15T08:46:21;5.97;;;2.13;;
75371;SDS011;63956;52.006;5.878;2023-04-15T08:48:51;5.97;;;2.88;;
75371;SDS011;63956;52.006;5.878;2023-04-15T08:51:27;4.65;;;2.47;;
75371;SDS011;63956;52.006;5.878;2023-04-15T08:53:56;4.28;;;2.38;;
75371;SDS011;63956;52.006;5.878;2023-04-15T08:56:26;5.00;;;3.08;;
75371;SDS011;63956;52.006;5.878;2023-04-15T08:58:58;4.32;;;2.03;;
75371;SDS011;63956;52.006;5.878;2023-04-15T09:01:28;5.07;;;2.80;;
75371;SDS011;63956;52.006;5.878;2023-04-15T09:03:57;5.15;;;1.30;;
75371;SDS011;63956;52.006;5.878;2023-04-15T09:06:29;6.30;;;2.83;;
75371;SDS011;63956;52.006;5.878;2023-04-15T09:08:58;6.78;;;3.17;;
75371;SDS011;63956;52.006;5.878;2023-04-15T09:11:28;5.18;;;2.50;;
75371;SDS011;63956;52.006;5.878;2023-04-15T09:13:58;4.65;;;2.50;;
75371;SDS011;63956;52.006;5.878;2023-04-15T09:16:27;4.43;;;3.20;;
75371;SDS011;63956;52.006;5.878;2023-04-15T09:18:57;5.13;;;3.28;;
75371;SDS011;63956;52.006;5.878;2023-04-15T09:23:57;5.18;;;2.97;;
75371;SDS011;63956;52.006;5.878;2023-04-15T09:26:32;6.05;;;3.38;;
75371;SDS011;63956;52.006;5.878;2023-04-15T09:29:02;4.82;;;2.83;;
75371;SDS011;63956;52.006;5.878;2023-04-15T09:31:34;4.05;;;2.72;;
75371;SDS011;63956;52.006;5.878;2023-04-15T09:34:03;4.03;;;1.20;;
75371;SDS011;63956;52.006;5.878;2023-04-15T09:36:37;4.65;;;2.35;;
75371;SDS011;63956;52.006;5.878;2023-04-15T09:39:23;5.25;;;2.97;;
75371;SDS011;63956;52.006;5.878;2023-04-15T09:42:04;6.00;;;2.03;;
75371;SDS011;63956;52.006;5.878;2023-04-15T09:44:34;5.47;;;3.40;;
75371;SDS011;63956;52.006;5.878;2023-04-15T09:47:04;5.68;;;2.95;;
75371;SDS011;63956;52.006;5.878;2023-04-15T09:49:33;6.75;;;3.17;;
75371;SDS011;63956;52.006;5.878;2023-04-15T09:52:03;4.70;;;2.38;;
75371;SDS011;63956;52.006;5.878;2023-04-15T09:54:36;6.15;;;3.55;;
75371;SDS011;63956;52.006;5.878;2023-04-15T09:57:06;3.70;;;1.85;;
75371;SDS011;63956;52.006;5.878;2023-04-15T09:59:36;4.15;;;2.10;;
75371;SDS011;63956;52.006;5.878;2023-04-15T10:02:06;6.93;;;2.88;;
75371;SDS011;63956;52.006;5.878;2023-04-15T10:04:37;5.57;;;2.90;;
75371;SDS011;63956;52.006;5.878;2023-04-15T10:07:09;4.13;;;3.15;;
75371;SDS011;63956;52.006;5.878;2023-04-15T10:09:42;3.08;;;0.82;;
75371;SDS011;63956;52.006;5.878;2023-04-15T10:12:12;4.97;;;4.45;;
75371;SDS011;63956;52.006;5.878;2023-04-15T10:14:45;4.72;;;2.55;;
75371;SDS011;63956;52.006;5.878;2023-04-15T10:17:16;3.80;;;1.85;;
75371;SDS011;63956;52.006;5.878;2023-04-15T10:19:49;4.32;;;2.63;;
75371;SDS011;63956;52.006;5.878;2023-04-15T10:22:22;3.20;;;1.80;;
75371;SDS011;63956;52.006;5.878;2023-04-15T10:24:54;4.40;;;2.97;;
75371;SDS011;63956;52.006;5.878;2023-04-15T10:27:24;7.90;;;3.75;;
75371;SDS011;63956;52.006;5.878;2023-04-15T10:29:55;4.63;;;2.83;;
75371;SDS011;63956;52.006;5.878;2023-04-15T10:32:24;4.18;;;2.25;;
75371;SDS011;63956;52.006;5.878;2023-04-15T10:34:54;3.80;;;1.95;;
75371;SDS011;63956;52.006;5.878;2023-04-15T10:37:32;3.22;;;1.33;;
75371;SDS011;63956;52.006;5.878;2023-04-15T10:43:00;3.72;;;2.00;;
75371;SDS011;63956;52.006;5.878;2023-04-15T10:45:31;4.20;;;1.90;;
75371;SDS011;63956;52.006;5.878;2023-04-15T10:48:03;2.33;;;0.68;;
75371;SDS011;63956;52.006;5.878;2023-04-15T10:50:34;5.57;;;3.20;;
75371;SDS011;63956;52.006;5.878;2023-04-15T10:53:05;4.18;;;2.30;;
75371;SDS011;63956;52.006;5.878;2023-04-15T10:55:40;2.65;;;1.38;;
75371;SDS011;63956;52.006;5.878;2023-04-15T10:58:09;4.18;;;1.80;;
75371;SDS011;63956;52.006;5.878;2023-04-15T11:00:39;4.47;;;2.10;;
75371;SDS011;63956;52.006;5.878;2023-04-15T11:03:20;2.72;;;0.73;;
75371;SDS011;63956;52.006;5.878;2023-04-15T11:06:04;3.83;;;1.77;;
75371;SDS011;63956;52.006;5.878;2023-04-15T11:14:25;4.30;;;2.03;;
75371;SDS011;63956;52.006;5.878;2023-04-15T11:16:54;4.43;;;2.17;;
75371;SDS011;63956;52.006;5.878;2023-04-15T11:19:24;4.07;;;2.03;;
75371;SDS011;63956;52.006;5.878;2023-04-15T11:21:53;7.07;;;2.45;;
75371;SDS011;63956;52.006;5.878;2023-04-15T11:24:23;3.80;;;1.75;;
75371;SDS011;63956;52.006;5.878;2023-04-15T11:26:56;2.45;;;0.70;;
75371;SDS011;63956;52.006;5.878;2023-04-15T11:29:30;4.30;;;1.80;;
75371;SDS011;63956;52.006;5.878;2023-04-15T11:32:05;4.28;;;1.92;;
75371;SDS011;63956;52.006;5.878;2023-04-15T11:34:37;3.47;;;2.05;;
75371;SDS011;63956;52.006;5.878;2023-04-15T11:37:06;3.20;;;1.98;;
75371;SDS011;63956;52.006;5.878;2023-04-15T11:39:36;3.17;;;1.60;;
75371;SDS011;63956;52.006;5.878;2023-04-15T11:42:15;2.95;;;1.35;;
75371;SDS011;63956;52.006;5.878;2023-04-15T11:44:47;3.50;;;1.92;;
75371;SDS011;63956;52.006;5.878;2023-04-15T11:47:22;2.25;;;0.70;;
75371;SDS011;63956;52.006;5.878;2023-04-15T11:49:51;3.13;;;1.48;;
75371;SDS011;63956;52.006;5.878;2023-04-15T11:52:21;4.30;;;1.67;;
75371;SDS011;63956;52.006;5.878;2023-04-15T11:54:50;4.70;;;1.75;;
75371;SDS011;63956;52.006;5.878;2023-04-15T11:57:19;3.75;;;1.80;;
75371;SDS011;63956;52.006;5.878;2023-04-15T11:59:51;3.58;;;1.60;;
75371;SDS011;63956;52.006;5.878;2023-04-15T12:02:28;5.05;;;1.65;;
75371;SDS011;63956;52.006;5.878;2023-04-15T12:05:02;3.15;;;1.65;;
75371;SDS011;63956;52.006;5.878;2023-04-15T12:07:32;3.15;;;1.52;;
75371;SDS011;63956;52.006;5.878;2023-04-15T12:10:02;3.20;;;1.55;;
75371;SDS011;63956;52.006;5.878;2023-04-15T12:12:31;2.97;;;1.48;;
75371;SDS011;63956;52.006;5.878;2023-04-15T12:15:03;1.58;;;0.47;;
75371;SDS011;63956;52.006;5.878;2023-04-15T12:17:37;3.60;;;2.22;;
75371;SDS011;63956;52.006;5.878;2023-04-15T12:20:08;4.32;;;1.65;;
75371;SDS011;63956;52.006;5.878;2023-04-15T12:22:37;2.65;;;1.15;;
75371;SDS011;63956;52.006;5.878;2023-04-15T12:25:07;2.53;;;1.02;;
75371;SDS011;63956;52.006;5.878;2023-04-15T12:27:36;4.22;;;3.25;;
75371;SDS011;63956;52.006;5.878;2023-04-15T12:30:08;3.80;;;1.55;;
75371;SDS011;63956;52.006;5.878;2023-04-15T12:32:38;3.38;;;1.80;;
75371;SDS011;63956;52.006;5.878;2023-04-15T12:35:07;4.18;;;1.85;;
75371;SDS011;63956;52.006;5.878;2023-04-15T12:37:36;2.75;;;1.27;;
75371;SDS011;63956;52.006;5.878;2023-04-15T12:40:07;3.35;;;1.75;;
75371;SDS011;63956;52.006;5.878;2023-04-15T12:42:36;2.05;;;0.65;;
75371;SDS011;63956;52.006;5.878;2023-04-15T12:45:09;2.97;;;1.58;;
75371;SDS011;63956;52.006;5.878;2023-04-15T12:47:38;2.63;;;0.70;;
75371;SDS011;63956;52.006;5.878;2023-04-15T12:50:07;3.75;;;1.58;;
75371;SDS011;63956;52.006;5.878;2023-04-15T12:52:36;4.15;;;2.20;;
75371;SDS011;63956;52.006;5.878;2023-04-15T12:55:06;6.72;;;1.55;;
75371;SDS011;63956;52.006;5.878;2023-04-15T12:57:35;3.55;;;1.65;;
75371;SDS011;63956;52.006;5.878;2023-04-15T13:00:05;3.70;;;1.52;;
75371;SDS011;63956;52.006;5.878;2023-04-15T13:02:38;3.60;;;1.63;;
75371;SDS011;63956;52.006;5.878;2023-04-15T13:05:08;3.28;;;1.77;;
75371;SDS011;63956;52.006;5.878;2023-04-15T13:07:39;3.00;;;1.30;;
75371;SDS011;63956;52.006;5.878;2023-04-15T13:10:09;2.95;;;0.65;;
75371;SDS011;63956;52.006;5.878;2023-04-15T13:12:38;3.58;;;1.95;;
75371;SDS011;63956;52.006;5.878;2023-04-15T13:15:10;3.35;;;1.88;;
75371;SDS011;63956;52.006;5.878;2023-04-15T13:17:40;2.70;;;1.38;;
75371;SDS011;63956;52.006;5.878;2023-04-15T13:20:09;2.47;;;1.58;;
75371;SDS011;63956;52.006;5.878;2023-04-15T13:22:38;3.60;;;1.63;;
75371;SDS011;63956;52.006;5.878;2023-04-15T13:25:08;2.63;;;1.25;;
75371;SDS011;63956;52.006;5.878;2023-04-15T13:27:37;8.57;;;2.53;;
75371;SDS011;63956;52.006;5.878;2023-04-15T13:30:10;2.75;;;1.17;;
75371;SDS011;63956;52.006;5.878;2023-04-15T13:32:39;3.22;;;1.77;;
75371;SDS011;63956;52.006;5.878;2023-04-15T13:35:08;2.67;;;1.67;;
75371;SDS011;63956;52.006;5.878;2023-04-15T13:37:38;2.75;;;1.40;;
75371;SDS011;63956;52.006;5.878;2023-04-15T13:40:07;4.38;;;1.38;;
75371;SDS011;63956;52.006;5.878;2023-04-15T13:42:37;2.83;;;1.30;;
75371;SDS011;63956;52.006;5.878;2023-04-15T13:45:10;2.67;;;1.38;;
75371;SDS011;63956;52.006;5.878;2023-04-15T13:47:39;4.03;;;1.52;;
75371;SDS011;63956;52.006;5.878;2023-04-15T13:50:09;2.97;;;1.65;;
75371;SDS011;63956;52.006;5.878;2023-04-15T13:52:38;3.20;;;2.33;;
75371;SDS011;63956;52.006;5.878;2023-04-15T13:55:08;3.08;;;1.58;;
75371;SDS011;63956;52.006;5.878;2023-04-15T13:57:38;2.50;;;1.42;;
75371;SDS011;63956;52.006;5.878;2023-04-15T14:00:10;4.22;;;1.35;;
75371;SDS011;63956;52.006;5.878;2023-04-15T14:02:40;2.28;;;1.10;;
75371;SDS011;63956;52.006;5.878;2023-04-15T14:05:10;4.47;;;2.25;;
75371;SDS011;63956;52.006;5.878;2023-04-15T14:07:39;3.30;;;1.42;;
75371;SDS011;63956;52.006;5.878;2023-04-15T14:10:08;2.70;;;1.27;;
75371;SDS011;63956;52.006;5.878;2023-04-15T14:12:37;2.28;;;1.23;;
75371;SDS011;63956;52.006;5.878;2023-04-15T14:15:07;2.28;;;1.23;;
75371;SDS011;63956;52.006;5.878;2023-04-15T14:17:39;2.78;;;1.35;;
75371;SDS011;63956;52.006;5.878;2023-04-15T14:20:09;3.08;;;1.58;;
75371;SDS011;63956;52.006;5.878;2023-04-15T14:22:38;2.83;;;1.25;;
75371;SDS011;63956;52.006;5.878;2023-04-15T14:25:08;3.30;;;1.65;;
75371;SDS011;63956;52.006;5.878;2023-04-15T14:27:37;2.83;;;1.38;;
75371;SDS011;63956;52.006;5.878;2023-04-15T14:30:07;2.35;;;0.65;;
75371;SDS011;63956;52.006;5.878;2023-04-15T14:32:40;3.33;;;1.58;;
75371;SDS011;63956;52.006;5.878;2023-04-15T14:35:09;3.38;;;1.80;;
75371;SDS011;63956;52.006;5.878;2023-04-15T14:37:38;2.75;;;1.45;;
75371;SDS011;63956;52.006;5.878;2023-04-15T14:40:07;3.50;;;2.05;;
75371;SDS011;63956;52.006;5.878;2023-04-15T14:42:37;3.88;;;1.77;;
75371;SDS011;63956;52.006;5.878;2023-04-15T14:45:07;2.88;;;1.80;;
75371;SDS011;63956;52.006;5.878;2023-04-15T14:47:39;3.30;;;1.30;;
75371;SDS011;63956;52.006;5.878;2023-04-15T14:50:09;3.08;;;1.58;;
75371;SDS011;63956;52.006;5.878;2023-04-15T14:52:38;3.13;;;2.15;;
75371;SDS011;63956;52.006;5.878;2023-04-15T14:55:08;2.50;;;1.42;;
75371;SDS011;63956;52.006;5.878;2023-04-15T14:57:38;9.38;;;2.47;;
75371;SDS011;63956;52.006;5.878;2023-04-15T15:00:11;3.60;;;1.77;;
75371;SDS011;63956;52.006;5.878;2023-04-15T15:02:42;3.20;;;1.85;;
75371;SDS011;63956;52.006;5.878;2023-04-15T15:05:13;3.30;;;2.05;;
75371;SDS011;63956;52.006;5.878;2023-04-15T15:10:11;4.50;;;2.13;;
75371;SDS011;63956;52.006;5.878;2023-04-15T15:12:40;2.25;;;1.33;;
75371;SDS011;63956;52.006;5.878;2023-04-15T15:15:12;3.28;;;2.55;;
75371;SDS011;63956;52.006;5.878;2023-04-15T15:17:41;3.28;;;2.65;;
75371;SDS011;63956;52.006;5.878;2023-04-15T15:20:10;2.35;;;1.25;;
75371;SDS011;63956;52.006;5.878;2023-04-15T15:22:41;3.00;;;1.55;;
75371;SDS011;63956;52.006;5.878;2023-04-15T15:25:10;3.08;;;1.58;;
75371;SDS011;63956;52.006;5.878;2023-04-15T15:27:39;3.95;;;2.40;;
75371;SDS011;63956;52.006;5.878;2023-04-15T15:30:09;2.83;;;1.80;;
75371;SDS011;63956;52.006;5.878;2023-04-15T15:32:41;7.68;;;1.35;;
75371;SDS011;63956;52.006;5.878;2023-04-15T15:35:11;1.77;;;0.45;;
75371;SDS011;63956;52.006;5.878;2023-04-15T15:37:41;6.03;;;1.90;;
75371;SDS011;63956;52.006;5.878;2023-04-15T15:40:11;3.15;;;0.63;;
75371;SDS011;63956;52.006;5.878;2023-04-15T15:42:40;2.92;;;1.50;;
75371;SDS011;63956;52.006;5.878;2023-04-15T15:45:10;4.78;;;1.83;;
75371;SDS011;63956;52.006;5.878;2023-04-15T15:47:41;3.25;;;1.25;;
75371;SDS011;63956;52.006;5.878;2023-04-15T15:50:11;3.03;;;1.55;;
75371;SDS011;63956;52.006;5.878;2023-04-15T15:52:41;4.53;;;2.05;;
75371;SDS011;63956;52.006;5.878;2023-04-15T15:55:10;3.25;;;1.30;;
75371;SDS011;63956;52.006;5.878;2023-04-15T15:57:39;5.05;;;2.15;;
75371;SDS011;63956;52.006;5.878;2023-04-15T16:00:09;3.22;;;1.55;;
75371;SDS011;63956;52.006;5.878;2023-04-15T16:02:42;5.07;;;2.05;;
75371;SDS011;63956;52.006;5.878;2023-04-15T16:05:11;2.03;;;0.40;;
75371;SDS011;63956;52.006;5.878;2023-04-15T16:07:40;5.50;;;1.88;;
75371;SDS011;63956;52.006;5.878;2023-04-15T16:10:09;4.15;;;1.35;;
75371;SDS011;63956;52.006;5.878;2023-04-15T16:12:39;3.22;;;1.63;;
75371;SDS011;63956;52.006;5.878;2023-04-15T16:15:09;3.30;;;1.83;;
75371;SDS011;63956;52.006;5.878;2023-04-15T16:17:42;4.82;;;1.63;;
75371;SDS011;63956;52.006;5.878;2023-04-15T16:20:11;6.75;;;1.75;;
75371;SDS011;63956;52.006;5.878;2023-04-15T16:25:09;3.50;;;1.80;;
75371;SDS011;63956;52.006;5.878;2023-04-15T16:30:08;3.08;;;1.95;;
75371;SDS011;63956;52.006;5.878;2023-04-15T16:32:38;2.45;;;1.42;;
75371;SDS011;63956;52.006;5.878;2023-04-15T16:35:10;3.17;;;0.77;;
75371;SDS011;63956;52.006;5.878;2023-04-15T16:37:41;4.78;;;1.90;;
75371;SDS011;63956;52.006;5.878;2023-04-15T16:40:10;1.75;;;0.30;;
75371;SDS011;63956;52.006;5.878;2023-04-15T16:42:40;4.60;;;1.92;;
75371;SDS011;63956;52.006;5.878;2023-04-15T16:45:10;7.10;;;1.75;;
75371;SDS011;63956;52.006;5.878;2023-04-15T16:47:39;2.97;;;1.23;;
75371;SDS011;63956;52.006;5.878;2023-04-15T16:50:11;3.85;;;1.08;;